Time;durP1;ratioP1;P1;durP2;ratioP2;P2;SDS_P1;SDS_P2;PMS_P1;PMS_P2;Temp;Humidity;BMP_temperature;BMP_pressure;BME280_temperature;BME280_humidity;BME280_pressure;Samples;Min_cycle;Max_cycle;Signal;HPM_P1;HPM_P2
2022/10/29 00:00:53;;;;;;;5.55;1.48;;;19.50;61.90;;;;;;4863861;29;20101;-52
2022/10/29 00:03:20;;;;;;;12.07;2.22;;;19.50;63.90;;;;;;4863297;29;20048;-54
2022/10/29 00:06:01;;;;;;;7.28;2.00;;;19.50;59.60;;;;;;4862768;29;20055;-54
2022/10/29 00:08:29;;;;;;;9.70;2.42;;;19.50;63.40;;;;;;4871874;29;20052;-54
2022/10/29 00:11:06;;;;;;;6.25;1.67;;;19.50;63.50;;;;;;4881917;29;20508;-53
2022/10/29 00:13:33;;;;;;;4.60;1.40;;;19.50;62.70;;;;;;4882137;29;20444;-54
2022/10/29 00:16:04;;;;;;;6.95;1.23;;;19.50;64.80;;;;;;4881879;29;20049;-49
2022/10/29 00:18:31;;;;;;;7.15;1.45;;;19.50;64.00;;;;;;4881621;29;20447;-54
2022/10/29 00:21:02;;;;;;;5.68;1.30;;;19.50;63.30;;;;;;4881805;29;20377;-53
2022/10/29 00:23:30;;;;;;;6.95;2.20;;;19.50;63.80;;;;;;4881894;29;20045;-55
2022/10/29 00:25:58;;;;;;;6.85;1.95;;;19.50;63.60;;;;;;4881766;29;20049;-55
2022/10/29 00:28:26;;;;;;;6.93;1.73;;;19.50;59.60;;;;;;4881168;29;20067;-54
2022/10/29 00:30:53;;;;;;;5.93;1.40;;;19.50;62.10;;;;;;4881623;29;20483;-56
2022/10/29 00:33:20;;;;;;;4.45;1.40;;;19.50;60.00;;;;;;4881986;29;20052;-51
2022/10/29 00:35:58;;;;;;;4.82;1.60;;;19.50;63.10;;;;;;4881909;29;20056;-53
2022/10/29 00:38:26;;;;;;;6.53;1.10;;;19.40;61.30;;;;;;4881253;29;20041;-55
2022/10/29 00:40:54;;;;;;;7.47;1.40;;;19.40;60.00;;;;;;4881350;29;20045;-59
2022/10/29 00:43:22;;;;;;;2.00;0.90;;;19.40;59.20;;;;;;4881525;29;20037;-54
2022/10/29 00:45:57;;;;;;;4.00;1.30;;;19.40;63.80;;;;;;4881449;29;20049;-55
2022/10/29 00:48:27;;;;;;;4.30;0.82;;;19.40;60.70;;;;;;4880871;29;20128;-54
2022/10/29 00:50:56;;;;;;;5.85;2.10;;;19.40;60.50;;;;;;4881310;29;20045;-53
2022/10/29 00:53:27;;;;;;;4.25;1.65;;;19.40;64.00;;;;;;4881140;29;20055;-56
2022/10/29 00:55:55;;;;;;;4.68;1.50;;;19.40;61.50;;;;;;4881372;29;20076;-54
2022/10/29 00:58:22;;;;;;;3.38;1.13;;;19.40;62.20;;;;;;4880886;29;20082;-53
2022/10/29 01:00:49;;;;;;;4.70;1.10;;;19.40;61.20;;;;;;4880296;29;20051;-54
2022/10/29 01:03:16;;;;;;;3.90;1.17;;;19.40;61.00;;;;;;4881408;29;20109;-55
2022/10/29 01:05:44;;;;;;;4.88;1.05;;;19.40;59.90;;;;;;4881273;29;20045;-55
2022/10/29 01:08:13;;;;;;;3.17;1.48;;;19.40;59.50;;;;;;4872541;29;20561;-57
2022/10/29 01:11:07;;;;;;;4.15;1.65;;;19.40;63.60;;;;;;4862202;29;20388;-56
2022/10/29 01:13:37;;;;;;;;;;;19.40;63.00;;;;;;4863149;29;20045;-51
2022/10/29 01:16:28;;;;;;;4.82;1.08;;;19.40;60.00;;;;;;4862498;29;19928;-55
2022/10/29 01:19:00;;;;;;;4.00;1.10;;;19.40;60.30;;;;;;4861847;29;20463;-52
2022/10/29 01:21:44;;;;;;;6.65;1.73;;;19.40;62.50;;;;;;4862289;29;20068;-56
2022/10/29 01:24:50;;;;;;;6.80;1.77;;;19.40;61.10;;;;;;4862631;29;20476;-52
2022/10/29 01:27:16;;;;;;;6.32;1.38;;;19.30;63.60;;;;;;4853923;29;20465;-56
2022/10/29 01:30:22;;;;;;;1.88;0.90;;;19.30;63.50;;;;;;4862047;29;20049;-55
2022/10/29 01:33:11;;;;;;;4.07;1.30;;;19.30;62.50;;;;;;4852238;29;20073;-54
2022/10/29 01:36:22;;;;;;;5.10;0.98;;;19.40;60.00;;;;;;4862194;29;20057;-54
2022/10/29 01:39:01;;;;;;;5.47;1.38;;;19.30;62.00;;;;;;4861618;29;20041;-52
2022/10/29 01:41:40;;;;;;;2.33;1.05;;;19.30;63.80;;;;;;4861875;29;20045;-55
2022/10/29 01:44:14;;;;;;;5.68;1.35;;;19.30;63.00;;;;;;4861852;29;20056;-56
2022/10/29 01:47:13;;;;;;;3.38;0.95;;;19.30;61.20;;;;;;4861937;29;20125;-52
2022/10/29 01:49:44;;;;;;;2.95;1.10;;;19.30;62.30;;;;;;4861305;29;20045;-56
2022/10/29 01:52:14;;;;;;;3.75;1.45;;;19.30;59.60;;;;;;4861913;29;20053;-54
2022/10/29 01:54:43;;;;;;;3.28;1.02;;;19.30;61.70;;;;;;4862066;29;20457;-55
2022/10/29 01:57:37;;;;;;;1.85;0.65;;;19.30;63.30;;;;;;4861830;29;20045;-53
2022/10/29 02:00:13;;;;;;;3.78;1.02;;;19.30;61.00;;;;;;4861493;29;20407;-55
2022/10/29 02:03:03;;;;;;;3.03;0.90;;;19.30;62.10;;;;;;4861626;29;20094;-51
2022/10/29 02:05:53;;;;;;;2.97;0.93;;;19.30;60.70;;;;;;4861670;29;20381;-53
2022/10/29 02:08:41;;;;;;;3.78;0.90;;;19.30;62.60;;;;;;4870023;29;20059;-55
2022/10/29 02:11:18;;;;;;;2.20;0.95;;;19.20;61.80;;;;;;4880119;29;20059;-55
2022/10/29 02:14:13;;;;;;;2.97;1.15;;;19.30;59.00;;;;;;4880297;29;20078;-57
2022/10/29 02:16:41;;;;;;;1.98;0.60;;;19.30;58.20;;;;;;4879947;29;20049;-51
2022/10/29 02:19:08;;;;;;;2.13;1.00;;;19.30;62.30;;;;;;4879494;29;20483;-53
2022/10/29 02:21:34;;;;;;;2.78;1.08;;;19.30;58.20;;;;;;4879895;29;20064;-55
2022/10/29 02:24:01;;;;;;;2.60;0.98;;;19.30;62.00;;;;;;4879829;29;20049;-53
2022/10/29 02:26:28;;;;;;;3.90;0.88;;;19.30;58.70;;;;;;4879655;29;20036;-52
2022/10/29 02:28:55;;;;;;;2.83;0.88;;;19.30;63.70;;;;;;4879774;29;20093;-52
2022/10/29 02:31:22;;;;;;;2.20;0.82;;;19.30;59.60;;;;;;4879737;29;20048;-54
2022/10/29 02:33:48;;;;;;;2.67;1.02;;;19.30;58.80;;;;;;4879934;29;20056;-53
2022/10/29 02:36:15;;;;;;;3.45;1.08;;;19.20;62.10;;;;;;4879643;29;20049;-56
2022/10/29 02:38:42;;;;;;;1.95;0.55;;;19.30;61.60;;;;;;4879581;29;20099;-55
2022/10/29 02:41:09;;;;;;;2.40;0.77;;;19.30;57.40;;;;;;4879741;29;20093;-56
2022/10/29 02:43:36;;;;;;;1.83;0.63;;;19.30;59.20;;;;;;4879613;29;20049;-54
2022/10/29 02:46:14;;;;;;;2.00;0.90;;;19.30;61.80;;;;;;4879685;29;20063;-54
2022/10/29 02:48:42;;;;;;;2.92;0.82;;;19.30;59.50;;;;;;4879365;29;20053;-55
2022/10/29 02:51:09;;;;;;;1.77;0.80;;;19.30;61.40;;;;;;4879330;29;20109;-56
2022/10/29 02:53:36;;;;;;;1.63;0.63;;;19.20;61.50;;;;;;4879530;29;20069;-56
2022/10/29 02:56:04;;;;;;;3.00;1.05;;;19.20;60.30;;;;;;4879388;29;20064;-56
2022/10/29 02:58:31;;;;;;;2.25;0.80;;;19.20;59.10;;;;;;4878967;29;20060;-56
2022/10/29 03:00:58;;;;;;;3.85;0.95;;;19.20;62.00;;;;;;4879375;29;20120;-57
2022/10/29 03:03:25;;;;;;;2.30;0.70;;;19.20;62.30;;;;;;4879670;29;20037;-56
2022/10/29 03:05:52;;;;;;;1.05;0.60;;;19.20;62.70;;;;;;4879353;29;20049;-52
2022/10/29 03:08:20;;;;;;;1.35;0.57;;;19.20;61.70;;;;;;4870538;29;20120;-56
2022/10/29 03:10:46;;;;;;;0.95;0.52;;;19.20;57.50;;;;;;4859498;29;20453;-52
2022/10/29 03:13:13;;;;;;;1.45;0.60;;;19.20;62.40;;;;;;4860924;29;20056;-53
2022/10/29 03:15:43;;;;;;;1.58;0.65;;;19.20;62.30;;;;;;4861069;29;20050;-54
2022/10/29 03:18:11;;;;;;;2.10;0.50;;;19.20;60.00;;;;;;4860993;29;20049;-53
2022/10/29 03:20:38;;;;;;;1.95;0.70;;;19.20;58.10;;;;;;4860517;29;20500;-54
2022/10/29 03:23:04;;;;;;;2.58;0.73;;;19.20;60.20;;;;;;4860721;29;20041;-54
2022/10/29 03:25:31;;;;;;;3.85;1.00;;;19.20;58.80;;;;;;4860741;29;20098;-57
2022/10/29 03:27:58;;;;;;;0.70;0.50;;;19.20;59.20;;;;;;4860750;29;20102;-53
2022/10/29 03:30:25;;;;;;;2.00;0.93;;;19.20;57.10;;;;;;4860456;29;20084;-56
2022/10/29 03:32:51;;;;;;;2.58;0.70;;;19.20;61.30;;;;;;4863831;29;20049;-55
2022/10/29 03:35:18;;;;;;;1.92;0.70;;;19.20;57.50;;;;;;4864345;29;20415;-57
2022/10/29 03:37:49;;;;;;;4.25;0.70;;;19.10;59.60;;;;;;4864308;29;20105;-54
2022/10/29 03:40:16;;;;;;;1.35;0.40;;;19.10;59.90;;;;;;4863807;29;20069;-57
2022/10/29 03:42:44;;;;;;;0.77;0.40;;;19.10;60.60;;;;;;4864219;29;20140;-53
2022/10/29 03:45:11;;;;;;;0.77;0.50;;;19.10;58.40;;;;;;4864015;29;20049;-53
2022/10/29 03:47:38;;;;;;;2.92;1.08;;;19.10;59.80;;;;;;4863995;29;20053;-51
2022/10/29 03:50:05;;;;;;;1.50;0.50;;;19.10;60.30;;;;;;4863577;29;20452;-54
2022/10/29 03:52:32;;;;;;;1.05;0.43;;;19.10;57.80;;;;;;4863770;29;20519;-55
2022/10/29 03:54:58;;;;;;;0.80;0.60;;;19.10;59.80;;;;;;4864013;29;20053;-52
2022/10/29 03:57:25;;;;;;;1.45;0.63;;;19.10;57.00;;;;;;4864320;29;20472;-55
2022/10/29 03:59:52;;;;;;;0.80;0.40;;;19.10;57.30;;;;;;4863531;29;20037;-54
2022/10/29 04:02:19;;;;;;;2.55;0.70;;;19.10;59.30;;;;;;4863730;29;20051;-53
2022/10/29 04:04:46;;;;;;;2.70;0.60;;;19.10;60.50;;;;;;4862614;29;20415;-55
2022/10/29 04:07:13;;;;;;;1.08;0.30;;;19.10;56.70;;;;;;4863668;29;20049;-55
2022/10/29 04:09:40;;;;;;;2.33;0.60;;;19.10;56.30;;;;;;4874650;29;20041;-52
2022/10/29 04:12:07;;;;;;;1.45;0.70;;;19.10;59.00;;;;;;4859864;29;20602;-56
2022/10/29 04:14:34;;;;;;;0.98;0.35;;;19.10;57.90;;;;;;4859396;29;20101;-54
2022/10/29 04:17:04;;;;;;;2.33;1.38;;;19.10;58.30;;;;;;4853676;29;20497;-55
2022/10/29 04:19:31;;;;;;;0.80;0.30;;;19.10;61.30;;;;;;4848830;29;20049;-54
2022/10/29 04:21:58;;;;;;;2.17;0.52;;;19.10;61.20;;;;;;4863654;29;20088;-55
2022/10/29 04:24:45;;;;;;;1.65;0.68;;;19.10;60.20;;;;;;4863694;29;20046;-55
2022/10/29 04:27:31;;;;;;;1.02;0.55;;;19.10;57.70;;;;;;4863534;29;20097;-52
2022/10/29 04:30:18;;;;;;;1.63;0.40;;;19.10;63.60;;;;;;4862788;29;20487;-55
2022/10/29 04:32:45;;;;;;;0.90;0.50;;;19.10;62.10;;;;;;4863304;29;20060;-56
2022/10/29 04:35:12;;;;;;;1.23;0.47;;;19.10;57.70;;;;;;4863234;29;20435;-55
2022/10/29 04:37:39;;;;;;;2.90;0.45;;;19.10;58.80;;;;;;4863149;29;20078;-54
2022/10/29 04:40:06;;;;;;;0.75;0.40;;;19.10;63.00;;;;;;4862638;29;20097;-54
2022/10/29 04:42:36;;;;;;;1.42;0.65;;;19.10;60.50;;;;;;4862956;29;20061;-55
2022/10/29 04:45:06;;;;;;;1.38;0.57;;;19.10;60.50;;;;;;4863109;29;20055;-54
2022/10/29 04:47:33;;;;;;;1.48;0.50;;;19.10;58.50;;;;;;4863366;29;20056;-53
2022/10/29 04:50:00;;;;;;;1.23;0.77;;;19.10;61.10;;;;;;4862534;29;20093;-54
2022/10/29 04:52:27;;;;;;;2.47;0.70;;;19.10;63.50;;;;;;4863046;29;20419;-55
2022/10/29 04:54:54;;;;;;;1.67;0.60;;;19.10;62.70;;;;;;4862751;29;20472;-56
2022/10/29 04:57:20;;;;;;;2.33;0.65;;;19.10;61.60;;;;;;4862838;29;20054;-54
2022/10/29 04:59:47;;;;;;;0.70;0.38;;;19.10;61.60;;;;;;4862332;29;20050;-54
2022/10/29 05:02:14;;;;;;;1.13;0.40;;;19.10;62.30;;;;;;4863003;29;20396;-54
2022/10/29 05:04:41;;;;;;;8.68;0.88;;;19.10;60.10;;;;;;4862767;29;20048;-57
2022/10/29 05:07:07;;;;;;;12.43;0.88;;;19.10;62.10;;;;;;4862263;29;20041;-56
2022/10/29 05:09:34;;;;;;;7.78;0.60;;;19.10;63.00;;;;;;4879041;29;20503;-54
2022/10/29 05:12:01;;;;;;;3.97;1.00;;;19.10;60.20;;;;;;4880459;29;20507;-56
2022/10/29 05:14:28;;;;;;;1.10;0.47;;;19.10;63.90;;;;;;4881036;29;20051;-56
2022/10/29 05:16:54;;;;;;;3.08;0.75;;;19.10;63.30;;;;;;4881323;29;20097;-54
2022/10/29 05:19:21;;;;;;;6.55;0.73;;;19.00;62.90;;;;;;4880793;29;20109;-56
2022/10/29 05:21:48;;;;;;;4.07;0.63;;;19.00;61.80;;;;;;4880988;29;20064;-54
2022/10/29 05:24:15;;;;;;;2.05;0.85;;;19.00;60.80;;;;;;4880736;29;20049;-56
2022/10/29 05:26:42;;;;;;;1.55;0.75;;;19.00;60.70;;;;;;4880766;29;20097;-57
2022/10/29 05:29:09;;;;;;;4.70;1.73;;;19.00;60.10;;;;;;4880477;29;20097;-55
2022/10/29 05:31:36;;;;;;;1.80;1.33;;;19.00;61.90;;;;;;4862550;29;20061;-56
2022/10/29 05:34:03;;;;;;;0.98;0.57;;;19.00;61.90;;;;;;4864958;29;20046;-55
2022/10/29 05:36:29;;;;;;;1.83;1.05;;;19.00;60.20;;;;;;4861918;29;20046;-55
2022/10/29 05:38:56;;;;;;;4.07;0.80;;;19.00;59.80;;;;;;4861844;29;20057;-53
2022/10/29 05:41:23;;;;;;;2.80;0.88;;;19.00;61.20;;;;;;4869394;29;20054;-55
2022/10/29 05:43:50;;;;;;;1.83;0.93;;;19.00;60.40;;;;;;4865288;29;20102;-57
2022/10/29 05:46:17;;;;;;;2.55;0.93;;;19.00;63.10;;;;;;4843370;29;20046;-55
2022/10/29 05:48:43;;;;;;;2.97;1.13;;;19.00;59.80;;;;;;4843612;29;20106;-54
2022/10/29 05:51:10;;;;;;;3.72;1.30;;;19.00;62.60;;;;;;4843163;29;20054;-55
2022/10/29 05:53:37;;;;;;;2.58;0.73;;;19.00;61.90;;;;;;4843022;29;20050;-54
2022/10/29 05:56:04;;;;;;;2.50;0.70;;;19.00;59.10;;;;;;4843469;29;20056;-52
2022/10/29 05:58:31;;;;;;;3.75;1.00;;;19.00;61.70;;;;;;4842826;29;20054;-54
2022/10/29 06:00:58;;;;;;;2.35;1.35;;;19.00;61.30;;;;;;4843337;29;20378;-53
2022/10/29 06:03:25;;;;;;;5.43;1.17;;;19.00;63.20;;;;;;4843380;29;20468;-56
2022/10/29 06:05:51;;;;;;;1.65;0.80;;;19.00;60.40;;;;;;4843336;29;20055;-53
2022/10/29 06:08:19;;;;;;;4.40;1.00;;;19.00;58.90;;;;;;4860050;29;20055;-51
2022/10/29 06:10:46;;;;;;;5.30;1.00;;;19.00;63.30;;;;;;4879828;29;20045;-54
2022/10/29 06:13:15;;;;;;;1.73;0.95;;;19.00;61.90;;;;;;4880127;29;20052;-56
2022/10/29 06:15:42;;;;;;;3.78;1.10;;;18.90;62.70;;;;;;4880074;29;20056;-55
2022/10/29 06:18:09;;;;;;;3.47;1.17;;;18.90;60.90;;;;;;4879980;29;20423;-55
2022/10/29 06:20:37;;;;;;;1.67;0.90;;;18.90;61.70;;;;;;4879442;29;20101;-53
2022/10/29 06:23:04;;;;;;;1.85;1.10;;;18.90;61.40;;;;;;4880411;29;20041;-55
2022/10/29 06:25:31;;;;;;;1.33;0.77;;;18.90;61.00;;;;;;4880154;29;20108;-56
2022/10/29 06:28:04;;;;;;;3.63;0.75;;;18.90;61.20;;;;;;4879970;29;20498;-51
2022/10/29 06:30:33;;;;;;;2.30;1.00;;;18.90;63.00;;;;;;4879661;29;20048;-52
2022/10/29 06:33:00;;;;;;;1.17;0.70;;;18.90;62.60;;;;;;4879667;29;20053;-52
2022/10/29 06:35:27;;;;;;;1.65;1.00;;;18.90;59.60;;;;;;4879905;29;20467;-55
2022/10/29 06:37:54;;;;;;;1.45;1.10;;;18.90;62.80;;;;;;4880164;29;20164;-53
2022/10/29 06:40:22;;;;;;;2.20;0.98;;;18.90;58.60;;;;;;4878692;29;20423;-53
2022/10/29 06:42:56;;;;;;;2.20;0.90;;;18.90;61.10;;;;;;4878914;29;20041;-54
2022/10/29 06:45:23;;;;;;;2.13;1.00;;;18.90;60.80;;;;;;4873472;29;20493;-49
2022/10/29 06:47:50;;;;;;;2.53;1.10;;;18.90;57.10;;;;;;4873294;29;20052;-54
2022/10/29 06:50:17;;;;;;;1.70;1.10;;;18.90;61.60;;;;;;4879233;29;20045;-52
2022/10/29 06:52:53;;;;;;;1.80;1.05;;;18.90;61.50;;;;;;4879447;29;20041;-52
2022/10/29 06:55:20;;;;;;;1.92;0.90;;;18.80;59.40;;;;;;4879610;29;20053;-51
2022/10/29 06:57:54;;;;;;;2.90;1.33;;;18.80;59.50;;;;;;4878188;29;20424;-54
2022/10/29 07:00:21;;;;;;;4.20;1.27;;;18.80;59.30;;;;;;4878906;29;20053;-54
2022/10/29 07:02:47;;;;;;;1.45;0.82;;;18.80;59.10;;;;;;4879507;29;20037;-51
2022/10/29 07:05:14;;;;;;;2.58;1.52;;;18.80;62.70;;;;;;4879457;29;20120;-55
2022/10/29 07:07:41;;;;;;;3.85;1.20;;;18.80;61.80;;;;;;4878788;29;20037;-53
2022/10/29 07:10:08;;;;;;;1.98;1.13;;;18.80;59.70;;;;;;4864379;29;20042;-51
2022/10/29 07:12:40;;;;;;;3.03;1.20;;;18.80;59.10;;;;;;4864603;29;20046;-55
2022/10/29 07:15:09;;;;;;;2.10;1.10;;;18.80;61.80;;;;;;4864516;29;20042;-53
2022/10/29 07:17:36;;;;;;;2.05;1.00;;;18.80;59.30;;;;;;4864673;29;20476;-55
2022/10/29 07:20:04;;;;;;;2.60;1.35;;;18.80;63.30;;;;;;4864312;29;20491;-51
2022/10/29 07:22:31;;;;;;;4.13;1.80;;;18.80;58.00;;;;;;4864589;29;20547;-51
2022/10/29 07:25:01;;;;;;;2.65;1.05;;;18.80;61.30;;;;;;4864396;29;20050;-57
2022/10/29 07:27:27;;;;;;;2.42;1.20;;;18.80;59.40;;;;;;4864225;29;20041;-50
2022/10/29 07:29:54;;;;;;;2.47;1.30;;;18.80;59.60;;;;;;4864026;29;20037;-52
2022/10/29 07:32:22;;;;;;;2.78;1.17;;;18.80;58.00;;;;;;4864410;29;20453;-57
2022/10/29 07:34:49;;;;;;;2.10;1.48;;;18.80;58.30;;;;;;4864305;29;20205;-55
2022/10/29 07:37:16;;;;;;;2.83;1.10;;;18.80;58.10;;;;;;4864391;29;20046;-55
2022/10/29 07:39:43;;;;;;;2.40;1.05;;;18.80;58.60;;;;;;4863783;29;20054;-54
2022/10/29 07:42:10;;;;;;;2.25;1.38;;;18.80;60.80;;;;;;4864140;29;20041;-56
2022/10/29 07:44:37;;;;;;;2.55;1.33;;;18.80;60.90;;;;;;4864064;29;20052;-55
2022/10/29 07:47:04;;;;;;;4.18;1.75;;;18.80;58.40;;;;;;4864039;29;20492;-53
2022/10/29 07:49:30;;;;;;;4.10;1.83;;;18.80;63.00;;;;;;4863573;29;20555;-56
2022/10/29 07:51:57;;;;;;;1.60;1.02;;;18.80;60.10;;;;;;4863878;29;20046;-53
2022/10/29 07:54:24;;;;;;;3.17;1.35;;;18.80;60.50;;;;;;4863808;29;20038;-53
2022/10/29 07:56:52;;;;;;;2.75;1.58;;;18.80;62.40;;;;;;4863985;29;20140;-53
2022/10/29 07:59:19;;;;;;;2.90;1.58;;;18.80;63.30;;;;;;4863565;29;20049;-51
2022/10/29 08:01:46;;;;;;;2.47;1.52;;;18.80;61.30;;;;;;4863721;29;20045;-50
2022/10/29 08:04:13;;;;;;;2.95;1.65;;;18.80;59.30;;;;;;4863644;29;20045;-54
2022/10/29 08:06:40;;;;;;;3.50;1.80;;;18.80;61.60;;;;;;4863995;29;20094;-55
2022/10/29 08:09:07;;;;;;;3.13;1.77;;;18.80;63.60;;;;;;4863301;29;20480;-51
2022/10/29 08:11:34;;;;;;;3.13;1.63;;;18.80;63.40;;;;;;4863701;29;20042;-52
2022/10/29 08:14:00;;;;;;;3.75;2.17;;;18.80;62.20;;;;;;4863789;29;20045;-55
2022/10/29 08:16:27;;;;;;;2.47;1.33;;;18.80;63.60;;;;;;4863418;29;20050;-55
2022/10/29 08:18:54;;;;;;;3.00;1.40;;;18.80;61.40;;;;;;4862902;29;20097;-56
2022/10/29 08:21:22;;;;;;;3.08;1.48;;;18.80;61.40;;;;;;4863279;29;20472;-57
2022/10/29 08:23:49;;;;;;;4.13;1.45;;;18.80;63.00;;;;;;4863526;29;20045;-52
2022/10/29 08:26:16;;;;;;;4.78;2.53;;;18.80;62.20;;;;;;4863415;29;20045;-55
2022/10/29 08:28:43;;;;;;;6.70;1.90;;;18.80;62.50;;;;;;4862894;29;20045;-56
2022/10/29 08:31:09;;;;;;;3.15;1.35;;;18.80;63.30;;;;;;4863176;29;20041;-54
2022/10/29 08:33:36;;;;;;;2.97;1.52;;;18.70;62.00;;;;;;4863125;29;20401;-56
2022/10/29 08:36:03;;;;;;;2.15;1.17;;;18.70;61.30;;;;;;4863196;29;20049;-54
2022/10/29 08:38:30;;;;;;;2.88;1.88;;;18.70;62.50;;;;;;4862713;29;20049;-56
2022/10/29 08:41:07;;;;;;;3.28;1.40;;;18.70;61.30;;;;;;4863228;29;20448;-53
2022/10/29 08:43:58;;;;;;;3.85;1.50;;;18.70;63.10;;;;;;4863210;29;20042;-55
2022/10/29 08:46:42;;;;;;;3.97;1.75;;;18.70;62.60;;;;;;4862929;29;20691;-53
2022/10/29 08:49:16;;;;;;;4.60;1.60;;;18.70;61.90;;;;;;4862649;29;20510;-54
2022/10/29 08:51:52;;;;;;;4.95;1.73;;;18.70;60.10;;;;;;4863282;29;20120;-52
2022/10/29 08:54:19;;;;;;;3.50;1.98;;;18.70;61.70;;;;;;4862816;29;20049;-56
2022/10/29 08:57:14;;;;;;;2.85;1.60;;;18.70;61.20;;;;;;4863042;29;20056;-53
2022/10/29 09:00:12;;;;;;;4.50;1.85;;;18.70;61.20;;;;;;4862542;29;20415;-55
2022/10/29 09:02:39;;;;;;;2.83;1.83;;;18.70;62.10;;;;;;4860242;29;20049;-54
2022/10/29 09:05:15;;;;;;;3.08;1.67;;;18.70;61.90;;;;;;4863050;29;20420;-54
2022/10/29 09:07:42;;;;;;;2.47;1.13;;;18.70;61.20;;;;;;4866350;29;20407;-54
2022/10/29 09:10:31;;;;;;;4.65;2.00;;;18.70;62.80;;;;;;4881267;29;20101;-57
2022/10/29 09:13:06;;;;;;;3.67;1.60;;;18.70;63.30;;;;;;4881188;29;20045;-53
2022/10/29 09:15:51;;;;;;;4.20;2.03;;;18.70;62.00;;;;;;4881400;29;20071;-55
2022/10/29 09:18:45;;;;;;;2.42;1.40;;;18.70;60.30;;;;;;4880529;29;20069;-54
2022/10/29 09:21:32;;;;;;;3.95;1.63;;;18.70;63.00;;;;;;4881182;29;20041;-54
2022/10/29 09:24:13;;;;;;;3.78;1.58;;;18.70;62.70;;;;;;4880888;29;20044;-57
2022/10/29 09:26:45;;;;;;;2.53;1.50;;;18.70;62.70;;;;;;4880925;29;20093;-56
2022/10/29 09:29:33;;;;;;;3.13;1.95;;;18.70;60.90;;;;;;4879729;29;20048;-54
2022/10/29 09:32:10;;;;;;;4.00;1.73;;;18.70;62.40;;;;;;4880742;29;20052;-51
2022/10/29 09:34:48;;;;;;;4.07;1.55;;;18.70;62.10;;;;;;4880711;29;20045;-55
2022/10/29 09:37:34;;;;;;;3.05;1.40;;;18.70;61.20;;;;;;4880742;29;20499;-54
2022/10/29 09:40:05;;;;;;;3.65;1.50;;;18.70;62.60;;;;;;4880275;29;20123;-52
2022/10/29 09:42:38;;;;;;;3.42;1.65;;;18.70;64.30;;;;;;4880575;29;20076;-54
2022/10/29 09:45:08;;;;;;;4.45;1.40;;;18.70;63.80;;;;;;4881129;29;20160;-55
2022/10/29 09:47:45;;;;;;;6.53;1.45;;;18.70;62.70;;;;;;4880483;29;20419;-55
2022/10/29 09:50:31;;;;;;;2.33;1.58;;;18.70;63.80;;;;;;4880148;29;20045;-54
2022/10/29 09:52:59;;;;;;;6.28;1.90;;;18.70;63.80;;;;;;4880553;29;20132;-55
2022/10/29 09:55:34;;;;;;;4.38;1.50;;;18.70;64.40;;;;;;4880463;29;20053;-52
2022/10/29 09:58:01;;;;;;;2.65;1.38;;;18.70;64.80;;;;;;4880288;29;20045;-55
2022/10/29 10:00:30;;;;;;;2.75;1.60;;;18.70;63.20;;;;;;4879840;29;20045;-53
2022/10/29 10:03:05;;;;;;;3.45;1.88;;;18.70;65.60;;;;;;4880421;29;20069;-54
2022/10/29 10:05:33;;;;;;;3.22;1.35;;;18.70;64.80;;;;;;4880403;29;20689;-54
2022/10/29 10:08:06;;;;;;;2.22;1.42;;;18.70;65.50;;;;;;4873982;29;20042;-54
2022/10/29 10:10:37;;;;;;;2.88;1.30;;;18.70;67.10;;;;;;4861494;29;20495;-52
2022/10/29 10:13:05;;;;;;;3.50;1.40;;;18.70;65.40;;;;;;4861406;29;20089;-55
2022/10/29 10:15:36;;;;;;;3.33;1.38;;;18.70;68.30;;;;;;4861679;29;20056;-51
2022/10/29 10:18:17;;;;;;;1.95;1.15;;;18.70;66.80;;;;;;4861534;29;20084;-56
2022/10/29 10:20:48;;;;;;;2.40;1.55;;;18.70;66.20;;;;;;4861330;29;20117;-56
2022/10/29 10:23:19;;;;;;;3.33;1.60;;;18.70;67.60;;;;;;4861160;29;20565;-52
2022/10/29 10:25:46;;;;;;;2.85;1.52;;;18.70;65.20;;;;;;4861387;29;20496;-55
2022/10/29 10:28:17;;;;;;;3.08;1.60;;;18.80;68.30;;;;;;4861204;29;20046;-55
2022/10/29 10:31:03;;;;;;;4.47;1.40;;;18.70;66.50;;;;;;4861139;29;20047;-56
2022/10/29 10:33:32;;;;;;;3.60;1.70;;;18.80;67.10;;;;;;4861346;29;20042;-55
2022/10/29 10:36:07;;;;;;;3.88;1.63;;;18.70;66.70;;;;;;4861352;29;20042;-55
2022/10/29 10:38:40;;;;;;;4.43;1.92;;;18.70;71.40;;;;;;4860686;29;20045;-56
2022/10/29 10:41:10;;;;;;;3.10;1.27;;;18.80;67.90;;;;;;4861066;29;20045;-56
2022/10/29 10:43:40;;;;;;;3.17;2.33;;;18.70;69.30;;;;;;4861386;29;20097;-54
2022/10/29 10:46:22;;;;;;;3.70;1.70;;;18.70;69.50;;;;;;4861129;29;20060;-55
2022/10/29 10:49:05;;;;;;;3.72;1.83;;;18.70;69.60;;;;;;4860762;29;20125;-56
2022/10/29 10:51:35;;;;;;;6.70;2.00;;;18.80;70.30;;;;;;4861106;29;20042;-54
2022/10/29 10:54:33;;;;;;;5.20;1.70;;;18.80;71.30;;;;;;4861091;29;20053;-57
2022/10/29 10:57:11;;;;;;;5.03;1.27;;;18.70;70.80;;;;;;4861081;29;20060;-56
2022/10/29 10:59:45;;;;;;;3.65;1.65;;;18.80;71.70;;;;;;4860485;29;20042;-56
2022/10/29 11:02:54;;;;;;;3.90;1.98;;;18.80;71.80;;;;;;4860856;29;20049;-57
2022/10/29 11:05:36;;;;;;;3.80;1.60;;;18.80;73.20;;;;;;4853907;29;20065;-57
2022/10/29 11:08:19;;;;;;;3.45;1.70;;;18.80;72.90;;;;;;4867081;29;20041;-57
2022/10/29 11:11:08;;;;;;;3.80;1.50;;;18.80;71.80;;;;;;4879249;29;20402;-56
2022/10/29 11:13:39;;;;;;;6.90;1.92;;;18.80;74.00;;;;;;4879218;29;20072;-57
2022/10/29 11:16:30;;;;;;;4.18;1.85;;;18.80;71.50;;;;;;4879327;29;20045;-55
2022/10/29 11:19:32;;;;;;;2.13;1.38;;;18.80;73.60;;;;;;4878849;29;20113;-57
2022/10/29 11:22:33;;;;;;;4.25;1.98;;;18.80;72.30;;;;;;4873442;29;20057;-56
2022/10/29 11:25:13;;;;;;;5.13;1.92;;;18.80;71.50;;;;;;4879356;29;20495;-54
2022/10/29 11:27:44;;;;;;;3.15;1.65;;;18.80;74.10;;;;;;4879311;29;20048;-56
2022/10/29 11:30:15;;;;;;;5.32;2.25;;;18.80;74.90;;;;;;4878993;29;20097;-55
2022/10/29 11:33:19;;;;;;;2.38;1.50;;;18.80;73.60;;;;;;4879099;29;20056;-56
2022/10/29 11:36:05;;;;;;;6.15;1.77;;;18.80;72.20;;;;;;4879323;29;20594;-54
2022/10/29 11:39:13;;;;;;;2.75;1.92;;;18.80;73.40;;;;;;4878662;29;20048;-54
2022/10/29 11:41:58;;;;;;;3.55;1.70;;;18.80;74.20;;;;;;4877365;29;20053;-55
2022/10/29 11:44:26;;;;;;;4.60;2.10;;;18.80;77.70;;;;;;4879088;29;20049;-56
2022/10/29 11:47:11;;;;;;;5.63;2.05;;;18.80;73.40;;;;;;4879366;29;20045;-57
2022/10/29 11:50:12;;;;;;;3.67;1.65;;;18.80;74.30;;;;;;4878586;29;20045;-54
2022/10/29 11:52:54;;;;;;;2.85;1.70;;;18.80;74.00;;;;;;4880325;29;20108;-53
2022/10/29 11:55:36;;;;;;;3.67;1.90;;;18.80;74.30;;;;;;4882603;29;20570;-55
2022/10/29 11:58:19;;;;;;;6.10;1.80;;;18.80;73.20;;;;;;4882302;29;20060;-56
2022/10/29 12:01:15;;;;;;;3.75;2.22;;;18.80;75.60;;;;;;4882589;29;20056;-55
2022/10/29 12:04:16;;;;;;;7.93;2.13;;;18.80;74.90;;;;;;4868419;29;20112;-57
2022/10/29 12:07:01;;;;;;;5.57;2.20;;;18.80;74.80;;;;;;4882357;29;20080;-52
2022/10/29 12:10:04;;;;;;;2.83;1.70;;;18.80;73.30;;;;;;4864595;29;20053;-54
2022/10/29 12:12:56;;;;;;;5.38;2.25;;;18.80;75.40;;;;;;4863456;29;20042;-54
2022/10/29 12:15:49;;;;;;;3.97;1.90;;;18.80;72.50;;;;;;4863681;29;20053;-56
2022/10/29 12:18:40;;;;;;;4.57;1.67;;;18.80;77.10;;;;;;4863584;29;20407;-56
2022/10/29 12:21:27;;;;;;;5.57;2.67;;;18.80;75.30;;;;;;4863781;29;20046;-53
2022/10/29 12:24:20;;;;;;;4.82;1.88;;;18.80;72.90;;;;;;4863559;29;20049;-55
2022/10/29 12:26:54;;;;;;;4.55;1.77;;;18.90;75.20;;;;;;4863927;29;20064;-54
2022/10/29 12:29:45;;;;;;;3.95;1.90;;;18.90;75.80;;;;;;4863023;29;20041;-57
2022/10/29 12:32:49;;;;;;;4.38;2.20;;;18.90;72.70;;;;;;4863413;29;20057;-55
2022/10/29 12:35:24;;;;;;;6.47;1.80;;;18.90;73.60;;;;;;4863144;29;20052;-56
2022/10/29 12:38:36;;;;;;;8.70;3.40;;;18.90;73.70;;;;;;4877488;29;20423;-51
2022/10/29 12:41:21;;;;;;;5.30;2.40;;;18.90;73.90;;;;;;4806479;29;20199;-54
2022/10/29 12:43:49;;;;;;;4.80;1.67;;;18.90;75.30;;;;;;4858753;29;20060;-56
2022/10/29 12:46:41;;;;;;;4.70;2.22;;;18.90;73.40;;;;;;4862971;29;20050;-57
2022/10/29 12:49:26;;;;;;;6.03;2.25;;;18.90;74.90;;;;;;4862724;29;20050;-57
2022/10/29 12:51:57;;;;;;;3.92;1.67;;;18.90;75.40;;;;;;4863063;29;20132;-54
2022/10/29 12:54:40;;;;;;;3.53;2.30;;;18.90;75.40;;;;;;4862832;29;20057;-51
2022/10/29 12:57:13;;;;;;;3.90;2.10;;;18.90;74.70;;;;;;4863127;29;20465;-56
2022/10/29 12:59:42;;;;;;;3.90;2.15;;;18.90;73.80;;;;;;4862438;29;20488;-55
2022/10/29 13:02:43;;;;;;;5.35;1.85;;;18.90;75.60;;;;;;4863141;29;20049;-54
2022/10/29 13:05:10;;;;;;;5.57;2.83;;;18.90;75.60;;;;;;4861499;29;20049;-57
2022/10/29 13:08:02;;;;;;;6.38;2.50;;;18.90;75.50;;;;;;4865613;29;20036;-56
2022/10/29 13:10:32;;;;;;;3.72;2.80;;;18.90;76.20;;;;;;4880717;29;20090;-56
2022/10/29 13:13:14;;;;;;;5.60;2.50;;;18.90;76.10;;;;;;4880879;29;20049;-54
2022/10/29 13:16:04;;;;;;;6.57;2.05;;;19.00;77.20;;;;;;4881038;29;20467;-56
2022/10/29 13:19:03;;;;;;;4.40;2.38;;;19.00;75.80;;;;;;4880754;29;20055;-54
2022/10/29 13:21:54;;;;;;;4.10;2.17;;;19.00;77.60;;;;;;4881345;29;20049;-56